sensor_id;sensor_type;location;lat;lon;timestamp;pressure;altitude;pressure_sealevel;temperature;humidity
62051;BME280;48008;51.204;6.766;2022-07-25T00:00:09;100703.06;;;23.50;54.09
62051;BME280;48008;51.204;6.766;2022-07-25T00:02:36;100701.63;;;23.48;54.32
62051;BME280;48008;51.204;6.766;2022-07-25T00:05:03;100694.84;;;23.45;54.18
62051;BME280;48008;51.204;6.766;2022-07-25T00:07:31;100681.09;;;23.35;54.71
62051;BME280;48008;51.204;6.766;2022-07-25T00:09:57;100679.47;;;23.34;54.45
62051;BME280;48008;51.204;6.766;2022-07-25T00:12:24;100674.88;;;23.34;53.95
62051;BME280;48008;51.204;6.766;2022-07-25T00:14:51;100671.00;;;23.30;54.57
62051;BME280;48008;51.204;6.766;2022-07-25T00:17:17;100662.28;;;23.28;54.67
62051;BME280;48008;51.204;6.766;2022-07-25T00:19:44;100665.13;;;23.22;54.40
62051;BME280;48008;51.204;6.766;2022-07-25T00:22:12;100652.56;;;23.15;54.55
62051;BME280;48008;51.204;6.766;2022-07-25T00:24:38;100669.88;;;23.14;54.78
62051;BME280;48008;51.204;6.766;2022-07-25T00:27:05;100656.22;;;23.09;54.51
62051;BME280;48008;51.204;6.766;2022-07-25T00:29:32;100662.94;;;23.07;54.98
62051;BME280;48008;51.204;6.766;2022-07-25T00:31:58;100656.69;;;23.06;55.17
62051;BME280;48008;51.204;6.766;2022-07-25T00:34:25;100652.22;;;23.00;55.54
62051;BME280;48008;51.204;6.766;2022-07-25T00:36:52;100654.13;;;22.88;54.95
62051;BME280;48008;51.204;6.766;2022-07-25T00:39:18;100651.53;;;22.93;55.79
62051;BME280;48008;51.204;6.766;2022-07-25T00:41:45;100654.47;;;22.91;54.63
62051;BME280;48008;51.204;6.766;2022-07-25T00:44:29;100649.28;;;22.90;55.18
62051;BME280;48008;51.204;6.766;2022-07-25T00:46:57;100642.94;;;22.84;55.22
62051;BME280;48008;51.204;6.766;2022-07-25T00:49:24;100640.28;;;22.72;55.67
62051;BME280;48008;51.204;6.766;2022-07-25T00:51:52;100653.53;;;22.74;55.89
62051;BME280;48008;51.204;6.766;2022-07-25T00:54:20;100649.44;;;22.71;55.70
62051;BME280;48008;51.204;6.766;2022-07-25T00:56:48;100647.34;;;22.61;56.38
62051;BME280;48008;51.204;6.766;2022-07-25T00:59:16;100648.84;;;22.57;56.58
62051;BME280;48008;51.204;6.766;2022-07-25T01:01:43;100643.81;;;22.49;56.83
62051;BME280;48008;51.204;6.766;2022-07-25T01:04:14;100650.38;;;22.53;57.18
62051;BME280;48008;51.204;6.766;2022-07-25T01:06:41;100650.84;;;22.50;57.26
62051;BME280;48008;51.204;6.766;2022-07-25T01:09:08;100647.91;;;22.52;57.62
62051;BME280;48008;51.204;6.766;2022-07-25T01:11:35;100649.69;;;22.58;57.62
62051;BME280;48008;51.204;6.766;2022-07-25T01:14:02;100645.56;;;22.55;57.76
62051;BME280;48008;51.204;6.766;2022-07-25T01:16:29;100646.53;;;22.49;57.99
62051;BME280;48008;51.204;6.766;2022-07-25T01:18:56;100643.59;;;22.51;58.00
62051;BME280;48008;51.204;6.766;2022-07-25T01:21:23;100646.16;;;22.46;58.62
62051;BME280;48008;51.204;6.766;2022-07-25T01:23:51;100638.66;;;22.48;58.23
62051;BME280;48008;51.204;6.766;2022-07-25T01:26:18;100642.16;;;22.48;57.65
62051;BME280;48008;51.204;6.766;2022-07-25T01:28:45;100637.25;;;22.45;57.83
62051;BME280;48008;51.204;6.766;2022-07-25T01:31:11;100640.63;;;22.40;58.12
62051;BME280;48008;51.204;6.766;2022-07-25T01:33:38;100636.78;;;22.36;58.65
62051;BME280;48008;51.204;6.766;2022-07-25T01:36:05;100636.66;;;22.31;58.47
62051;BME280;48008;51.204;6.766;2022-07-25T01:38:32;100630.06;;;22.27;59.02
62051;BME280;48008;51.204;6.766;2022-07-25T01:40:58;100633.31;;;22.17;58.37
62051;BME280;48008;51.204;6.766;2022-07-25T01:43:25;100628.75;;;22.18;58.45
62051;BME280;48008;51.204;6.766;2022-07-25T01:45:52;100630.25;;;22.14;58.47
62051;BME280;48008;51.204;6.766;2022-07-25T01:48:19;100627.91;;;22.17;58.63
62051;BME280;48008;51.204;6.766;2022-07-25T01:50:45;100625.78;;;22.08;58.42
62051;BME280;48008;51.204;6.766;2022-07-25T01:53:12;100615.81;;;22.08;58.75
62051;BME280;48008;51.204;6.766;2022-07-25T01:55:39;100616.88;;;22.07;59.03
62051;BME280;48008;51.204;6.766;2022-07-25T01:58:06;100618.84;;;22.00;59.22
62051;BME280;48008;51.204;6.766;2022-07-25T02:00:32;100626.72;;;22.01;58.81
62051;BME280;48008;51.204;6.766;2022-07-25T02:02:59;100623.81;;;22.03;59.18
62051;BME280;48008;51.204;6.766;2022-07-25T02:05:46;100620.25;;;22.02;59.45
62051;BME280;48008;51.204;6.766;2022-07-25T02:08:12;100619.31;;;21.97;58.87
62051;BME280;48008;51.204;6.766;2022-07-25T02:10:39;100613.22;;;22.01;59.18
62051;BME280;48008;51.204;6.766;2022-07-25T02:13:06;100619.44;;;22.02;59.25
62051;BME280;48008;51.204;6.766;2022-07-25T02:15:34;100607.69;;;21.96;59.29
62051;BME280;48008;51.204;6.766;2022-07-25T02:18:01;100610.84;;;21.93;59.78
62051;BME280;48008;51.204;6.766;2022-07-25T02:20:28;100607.56;;;21.91;59.80
62051;BME280;48008;51.204;6.766;2022-07-25T02:22:55;100602.25;;;21.84;59.45
62051;BME280;48008;51.204;6.766;2022-07-25T02:25:23;100604.28;;;21.89;59.88
62051;BME280;48008;51.204;6.766;2022-07-25T02:27:49;100596.41;;;21.88;59.51
62051;BME280;48008;51.204;6.766;2022-07-25T02:30:16;100593.72;;;21.88;59.74
62051;BME280;48008;51.204;6.766;2022-07-25T02:32:43;100595.00;;;21.85;59.54
62051;BME280;48008;51.204;6.766;2022-07-25T02:35:10;100593.13;;;21.85;59.80
62051;BME280;48008;51.204;6.766;2022-07-25T02:37:36;100583.63;;;21.83;60.00
62051;BME280;48008;51.204;6.766;2022-07-25T02:40:04;100586.41;;;21.88;59.92
62051;BME280;48008;51.204;6.766;2022-07-25T02:42:31;100582.31;;;21.85;60.05
62051;BME280;48008;51.204;6.766;2022-07-25T02:44:58;100580.94;;;21.83;59.79
62051;BME280;48008;51.204;6.766;2022-07-25T02:47:24;100579.72;;;21.79;59.90
62051;BME280;48008;51.204;6.766;2022-07-25T02:49:51;100573.81;;;21.70;60.46
62051;BME280;48008;51.204;6.766;2022-07-25T02:52:17;100569.28;;;21.71;60.73
62051;BME280;48008;51.204;6.766;2022-07-25T02:54:44;100569.72;;;21.67;61.25
62051;BME280;48008;51.204;6.766;2022-07-25T02:57:11;100566.09;;;21.62;61.25
62051;BME280;48008;51.204;6.766;2022-07-25T02:59:38;100568.41;;;21.58;61.31
62051;BME280;48008;51.204;6.766;2022-07-25T03:02:04;100561.97;;;21.59;61.41
62051;BME280;48008;51.204;6.766;2022-07-25T03:04:31;100564.31;;;21.56;61.31
62051;BME280;48008;51.204;6.766;2022-07-25T03:06:59;100562.88;;;21.53;61.86
62051;BME280;48008;51.204;6.766;2022-07-25T03:09:25;100551.06;;;21.54;61.20
62051;BME280;48008;51.204;6.766;2022-07-25T03:11:52;100554.25;;;21.44;61.49
62051;BME280;48008;51.204;6.766;2022-07-25T03:14:19;100545.75;;;21.47;61.83
62051;BME280;48008;51.204;6.766;2022-07-25T03:16:45;100546.78;;;21.46;61.37
62051;BME280;48008;51.204;6.766;2022-07-25T03:19:12;100543.03;;;21.47;61.76
62051;BME280;48008;51.204;6.766;2022-07-25T03:21:39;100546.78;;;21.46;61.24
62051;BME280;48008;51.204;6.766;2022-07-25T03:24:06;100536.44;;;21.43;60.73
62051;BME280;48008;51.204;6.766;2022-07-25T03:26:34;100529.16;;;21.44;61.73
62051;BME280;48008;51.204;6.766;2022-07-25T03:29:01;100533.97;;;21.42;60.63
62051;BME280;48008;51.204;6.766;2022-07-25T03:31:27;100523.63;;;21.39;60.71
62051;BME280;48008;51.204;6.766;2022-07-25T03:33:54;100534.56;;;21.44;60.32
62051;BME280;48008;51.204;6.766;2022-07-25T03:36:21;100530.69;;;21.40;60.29
62051;BME280;48008;51.204;6.766;2022-07-25T03:38:48;100530.31;;;21.36;60.71
62051;BME280;48008;51.204;6.766;2022-07-25T03:41:14;100528.00;;;21.40;60.56
62051;BME280;48008;51.204;6.766;2022-07-25T03:43:41;100521.69;;;21.46;60.36
62051;BME280;48008;51.204;6.766;2022-07-25T03:46:08;100517.47;;;21.50;60.93
62051;BME280;48008;51.204;6.766;2022-07-25T03:48:34;100520.41;;;21.49;60.90
62051;BME280;48008;51.204;6.766;2022-07-25T03:51:01;100518.19;;;21.45;60.76
62051;BME280;48008;51.204;6.766;2022-07-25T03:53:32;100514.31;;;21.53;60.47
62051;BME280;48008;51.204;6.766;2022-07-25T03:55:59;100510.81;;;21.53;60.68
62051;BME280;48008;51.204;6.766;2022-07-25T03:58:25;100518.91;;;21.53;60.38
62051;BME280;48008;51.204;6.766;2022-07-25T04:00:52;100518.31;;;21.51;60.38
62051;BME280;48008;51.204;6.766;2022-07-25T04:03:19;100516.06;;;21.47;60.55
62051;BME280;48008;51.204;6.766;2022-07-25T04:05:45;100522.03;;;21.50;61.20
62051;BME280;48008;51.204;6.766;2022-07-25T04:08:13;100516.06;;;21.47;59.92
62051;BME280;48008;51.204;6.766;2022-07-25T04:10:40;100510.22;;;21.51;60.41
62051;BME280;48008;51.204;6.766;2022-07-25T04:13:06;100511.03;;;21.51;60.56
62051;BME280;48008;51.204;6.766;2022-07-25T04:15:33;100510.81;;;21.53;60.79
62051;BME280;48008;51.204;6.766;2022-07-25T04:18:00;100505.63;;;21.51;60.74
62051;BME280;48008;51.204;6.766;2022-07-25T04:20:27;100508.31;;;21.51;60.50
62051;BME280;48008;51.204;6.766;2022-07-25T04:22:53;100506.56;;;21.45;60.41
62051;BME280;48008;51.204;6.766;2022-07-25T04:25:20;100502.25;;;21.56;60.95
62051;BME280;48008;51.204;6.766;2022-07-25T04:27:48;100502.25;;;21.56;60.43
62051;BME280;48008;51.204;6.766;2022-07-25T04:30:15;100494.59;;;21.64;60.54
62051;BME280;48008;51.204;6.766;2022-07-25T04:32:41;100498.03;;;21.60;59.63
62051;BME280;48008;51.204;6.766;2022-07-25T04:35:08;100499.19;;;21.64;59.69
62051;BME280;48008;51.204;6.766;2022-07-25T04:37:35;100502.47;;;21.66;59.94
62051;BME280;48008;51.204;6.766;2022-07-25T04:40:04;100495.09;;;21.73;60.10
62051;BME280;48008;51.204;6.766;2022-07-25T04:42:31;100489.00;;;21.78;58.82
62051;BME280;48008;51.204;6.766;2022-07-25T04:44:57;100483.25;;;21.74;60.53
62051;BME280;48008;51.204;6.766;2022-07-25T04:47:24;100483.25;;;21.74;59.90
62051;BME280;48008;51.204;6.766;2022-07-25T04:49:50;100475.84;;;21.81;60.20
62051;BME280;48008;51.204;6.766;2022-07-25T04:52:17;100481.69;;;21.90;60.40
62051;BME280;48008;51.204;6.766;2022-07-25T04:54:44;100472.31;;;21.93;59.37
62051;BME280;48008;51.204;6.766;2022-07-25T04:57:10;100478.06;;;21.96;59.92
62051;BME280;48008;51.204;6.766;2022-07-25T04:59:37;100477.97;;;21.91;59.53
62051;BME280;48008;51.204;6.766;2022-07-25T05:02:04;100466.69;;;21.94;58.99
62051;BME280;48008;51.204;6.766;2022-07-25T05:04:31;100461.19;;;21.89;59.58
62051;BME280;48008;51.204;6.766;2022-07-25T05:06:57;100462.56;;;21.92;59.86
62051;BME280;48008;51.204;6.766;2022-07-25T05:09:24;100455.31;;;21.92;59.43
62051;BME280;48008;51.204;6.766;2022-07-25T05:11:51;100454.34;;;21.98;59.42
62051;BME280;48008;51.204;6.766;2022-07-25T05:14:21;100455.75;;;22.01;58.42
62051;BME280;48008;51.204;6.766;2022-07-25T05:16:48;100452.13;;;21.95;58.63
62051;BME280;48008;51.204;6.766;2022-07-25T05:19:14;100449.31;;;22.02;58.51
62051;BME280;48008;51.204;6.766;2022-07-25T05:21:41;100441.09;;;22.09;58.64
62051;BME280;48008;51.204;6.766;2022-07-25T05:24:08;100448.69;;;22.12;57.84
62051;BME280;48008;51.204;6.766;2022-07-25T05:26:35;100450.13;;;22.02;57.53
62051;BME280;48008;51.204;6.766;2022-07-25T05:29:03;100448.59;;;22.07;58.37
62051;BME280;48008;51.204;6.766;2022-07-25T05:31:29;100445.41;;;22.10;58.62
62051;BME280;48008;51.204;6.766;2022-07-25T05:33:56;100452.09;;;22.19;58.84
62051;BME280;48008;51.204;6.766;2022-07-25T05:36:23;100453.16;;;22.18;57.95
62051;BME280;48008;51.204;6.766;2022-07-25T05:38:49;100447.25;;;22.21;58.50
62051;BME280;48008;51.204;6.766;2022-07-25T05:41:16;100450.47;;;22.18;58.06
62051;BME280;48008;51.204;6.766;2022-07-25T05:43:43;100440.81;;;22.22;57.74
62051;BME280;48008;51.204;6.766;2022-07-25T05:46:11;100445.53;;;22.27;57.28
62051;BME280;48008;51.204;6.766;2022-07-25T05:48:38;100434.75;;;22.27;58.06
62051;BME280;48008;51.204;6.766;2022-07-25T05:51:05;100431.88;;;22.33;58.44
62051;BME280;48008;51.204;6.766;2022-07-25T05:53:32;100428.25;;;22.39;57.90
62051;BME280;48008;51.204;6.766;2022-07-25T05:55:59;100427.25;;;22.46;57.84
62051;BME280;48008;51.204;6.766;2022-07-25T05:58:25;100427.59;;;22.49;57.38
62051;BME280;48008;51.204;6.766;2022-07-25T06:00:55;100429.91;;;22.57;56.56
62051;BME280;48008;51.204;6.766;2022-07-25T06:03:22;100427.81;;;22.59;56.19
62051;BME280;48008;51.204;6.766;2022-07-25T06:05:48;100420.84;;;22.64;56.17
62051;BME280;48008;51.204;6.766;2022-07-25T06:08:15;100417.50;;;22.73;56.34
62051;BME280;48008;51.204;6.766;2022-07-25T06:10:42;100424.22;;;22.71;56.41
62051;BME280;48008;51.204;6.766;2022-07-25T06:13:08;100424.13;;;22.66;55.72
62051;BME280;48008;51.204;6.766;2022-07-25T06:15:35;100423.91;;;22.67;56.28
62051;BME280;48008;51.204;6.766;2022-07-25T06:18:02;100417.75;;;22.72;56.89
62051;BME280;48008;51.204;6.766;2022-07-25T06:20:29;100420.88;;;22.80;56.44
62051;BME280;48008;51.204;6.766;2022-07-25T06:22:56;100414.00;;;22.90;57.27
62051;BME280;48008;51.204;6.766;2022-07-25T06:25:23;100421.31;;;22.89;55.60
62051;BME280;48008;51.204;6.766;2022-07-25T06:27:49;100415.81;;;23.01;55.81
62051;BME280;48008;51.204;6.766;2022-07-25T06:30:17;100416.78;;;23.07;57.23
62051;BME280;48008;51.204;6.766;2022-07-25T06:32:46;100429.66;;;23.16;58.19
62051;BME280;48008;51.204;6.766;2022-07-25T06:35:13;100420.22;;;23.19;59.39
62051;BME280;48008;51.204;6.766;2022-07-25T06:37:40;100423.81;;;23.25;58.36
62051;BME280;48008;51.204;6.766;2022-07-25T06:40:08;100433.50;;;23.37;56.86
62051;BME280;48008;51.204;6.766;2022-07-25T06:42:39;100421.03;;;23.36;55.93
62051;BME280;48008;51.204;6.766;2022-07-25T06:45:08;100428.41;;;23.41;55.19
62051;BME280;48008;51.204;6.766;2022-07-25T06:47:36;100421.78;;;23.49;55.81
62051;BME280;48008;51.204;6.766;2022-07-25T06:50:05;100419.53;;;23.63;54.85
62051;BME280;48008;51.204;6.766;2022-07-25T06:52:32;100419.59;;;23.68;55.39
62051;BME280;48008;51.204;6.766;2022-07-25T06:54:59;100423.13;;;23.68;56.82
62051;BME280;48008;51.204;6.766;2022-07-25T06:57:25;100424.53;;;23.71;56.94
62051;BME280;48008;51.204;6.766;2022-07-25T06:59:52;100411.63;;;23.78;56.72
62051;BME280;48008;51.204;6.766;2022-07-25T07:02:19;100412.69;;;23.77;54.16
62051;BME280;48008;51.204;6.766;2022-07-25T07:04:46;100412.19;;;23.97;54.05
62051;BME280;48008;51.204;6.766;2022-07-25T07:07:12;100402.84;;;24.10;54.13
62051;BME280;48008;51.204;6.766;2022-07-25T07:09:39;100410.31;;;24.20;53.68
62051;BME280;48008;51.204;6.766;2022-07-25T07:12:06;100398.94;;;24.23;53.49
62051;BME280;48008;51.204;6.766;2022-07-25T07:14:34;100410.16;;;24.31;54.58
62051;BME280;48008;51.204;6.766;2022-07-25T07:17:03;100399.63;;;24.35;54.77
62051;BME280;48008;51.204;6.766;2022-07-25T07:19:30;100400.19;;;24.37;55.58
62051;BME280;48008;51.204;6.766;2022-07-25T07:21:57;100402.53;;;24.50;53.79
62051;BME280;48008;51.204;6.766;2022-07-25T07:24:23;100401.84;;;24.60;53.87
62051;BME280;48008;51.204;6.766;2022-07-25T07:26:51;100393.81;;;24.70;53.80
62051;BME280;48008;51.204;6.766;2022-07-25T07:29:19;100396.09;;;24.84;53.54
62051;BME280;48008;51.204;6.766;2022-07-25T07:31:47;100399.53;;;25.06;51.07
62051;BME280;48008;51.204;6.766;2022-07-25T07:34:13;100397.44;;;25.14;50.45
62051;BME280;48008;51.204;6.766;2022-07-25T07:36:40;100408.88;;;25.21;50.42
62051;BME280;48008;51.204;6.766;2022-07-25T07:39:07;100411.22;;;25.34;50.24
62051;BME280;48008;51.204;6.766;2022-07-25T07:41:34;100408.28;;;25.46;51.04
62051;BME280;48008;51.204;6.766;2022-07-25T07:44:01;100410.88;;;25.68;48.36
62051;BME280;48008;51.204;6.766;2022-07-25T07:46:28;100402.44;;;25.64;48.43
62051;BME280;48008;51.204;6.766;2022-07-25T07:48:54;100405.50;;;25.78;48.21
62051;BME280;48008;51.204;6.766;2022-07-25T07:51:21;100402.81;;;25.83;48.62
62051;BME280;48008;51.204;6.766;2022-07-25T07:53:48;100396.88;;;25.92;47.46
62051;BME280;48008;51.204;6.766;2022-07-25T07:56:35;100410.44;;;25.92;47.16
62051;BME280;48008;51.204;6.766;2022-07-25T07:59:01;100408.59;;;25.97;46.65
62051;BME280;48008;51.204;6.766;2022-07-25T08:01:29;100416.53;;;26.04;47.10
62051;BME280;48008;51.204;6.766;2022-07-25T08:03:55;100407.53;;;25.98;47.91
62051;BME280;48008;51.204;6.766;2022-07-25T08:06:22;100406.16;;;26.01;48.63
62051;BME280;48008;51.204;6.766;2022-07-25T08:08:49;100415.19;;;26.12;47.36
62051;BME280;48008;51.204;6.766;2022-07-25T08:11:16;100410.84;;;26.11;47.87
62051;BME280;48008;51.204;6.766;2022-07-25T08:13:42;100407.31;;;26.15;47.63
62051;BME280;48008;51.204;6.766;2022-07-25T08:16:09;100410.00;;;26.10;48.26
62051;BME280;48008;51.204;6.766;2022-07-25T08:18:37;100411.94;;;26.15;48.45
62051;BME280;48008;51.204;6.766;2022-07-25T08:21:04;100419.81;;;26.11;46.69
62051;BME280;48008;51.204;6.766;2022-07-25T08:23:32;100427.94;;;26.06;44.67
62051;BME280;48008;51.204;6.766;2022-07-25T08:26:01;100437.19;;;26.05;45.06
62051;BME280;48008;51.204;6.766;2022-07-25T08:28:28;100419.41;;;25.92;44.73
62051;BME280;48008;51.204;6.766;2022-07-25T08:30:55;100415.56;;;25.83;45.88
62051;BME280;48008;51.204;6.766;2022-07-25T08:33:22;100419.94;;;25.84;45.66
62051;BME280;48008;51.204;6.766;2022-07-25T08:35:51;100415.00;;;25.81;45.14
62051;BME280;48008;51.204;6.766;2022-07-25T08:38:20;100410.97;;;25.89;45.17
62051;BME280;48008;51.204;6.766;2022-07-25T08:40:47;100420.44;;;25.81;45.35
62051;BME280;48008;51.204;6.766;2022-07-25T08:43:15;100434.63;;;25.88;45.09
62051;BME280;48008;51.204;6.766;2022-07-25T08:45:46;100429.94;;;25.78;45.85
62051;BME280;48008;51.204;6.766;2022-07-25T08:48:18;100429.69;;;25.80;46.60
62051;BME280;48008;51.204;6.766;2022-07-25T08:50:45;100438.28;;;25.66;46.19
62051;BME280;48008;51.204;6.766;2022-07-25T08:53:14;100432.56;;;25.63;46.65
62051;BME280;48008;51.204;6.766;2022-07-25T08:55:57;100429.91;;;25.73;46.19
62051;BME280;48008;51.204;6.766;2022-07-25T08:58:24;100425.00;;;25.65;45.54
62051;BME280;48008;51.204;6.766;2022-07-25T09:00:51;100431.56;;;25.74;46.58
62051;BME280;48008;51.204;6.766;2022-07-25T09:03:17;100437.06;;;25.90;46.13
62051;BME280;48008;51.204;6.766;2022-07-25T09:05:44;100431.97;;;25.93;46.22
62051;BME280;48008;51.204;6.766;2022-07-25T09:08:13;100434.19;;;26.01;45.38
62051;BME280;48008;51.204;6.766;2022-07-25T09:10:45;100429.56;;;26.02;45.19
62051;BME280;48008;51.204;6.766;2022-07-25T09:13:13;100433.06;;;25.97;45.71
62051;BME280;48008;51.204;6.766;2022-07-25T09:15:46;100442.69;;;26.20;45.40
62051;BME280;48008;51.204;6.766;2022-07-25T09:18:16;100443.25;;;26.28;44.56
62051;BME280;48008;51.204;6.766;2022-07-25T09:20:47;100434.81;;;26.24;45.02
62051;BME280;48008;51.204;6.766;2022-07-25T09:23:25;100441.09;;;26.30;45.28
62051;BME280;48008;51.204;6.766;2022-07-25T09:28:38;100445.44;;;26.36;45.34
62051;BME280;48008;51.204;6.766;2022-07-25T09:31:06;100459.41;;;26.60;45.66
62051;BME280;48008;51.204;6.766;2022-07-25T09:33:49;100449.59;;;26.54;45.34
62051;BME280;48008;51.204;6.766;2022-07-25T09:36:17;100451.03;;;26.61;45.53
62051;BME280;48008;51.204;6.766;2022-07-25T09:39:01;100457.41;;;26.35;44.67
62051;BME280;48008;51.204;6.766;2022-07-25T09:41:37;100466.03;;;26.11;45.59
62051;BME280;48008;51.204;6.766;2022-07-25T09:44:20;100472.78;;;26.09;46.51
62051;BME280;48008;51.204;6.766;2022-07-25T09:46:48;100465.41;;;25.99;46.45
62051;BME280;48008;51.204;6.766;2022-07-25T09:49:15;100469.22;;;25.98;47.27
62051;BME280;48008;51.204;6.766;2022-07-25T09:51:42;100461.44;;;25.79;47.76
62051;BME280;48008;51.204;6.766;2022-07-25T09:54:08;100475.06;;;25.84;47.35
62051;BME280;48008;51.204;6.766;2022-07-25T09:56:36;100475.84;;;25.75;47.31
62051;BME280;48008;51.204;6.766;2022-07-25T09:59:04;100474.59;;;25.55;47.67
62051;BME280;48008;51.204;6.766;2022-07-25T10:01:35;100482.38;;;25.41;47.94
62051;BME280;48008;51.204;6.766;2022-07-25T10:04:21;100487.78;;;25.36;48.33
62051;BME280;48008;51.204;6.766;2022-07-25T10:07:03;100484.69;;;25.27;48.71
62051;BME280;48008;51.204;6.766;2022-07-25T10:09:33;100499.91;;;25.28;48.50
62051;BME280;48008;51.204;6.766;2022-07-25T10:12:08;100499.91;;;25.28;48.57
62051;BME280;48008;51.204;6.766;2022-07-25T10:14:36;100502.63;;;25.28;48.52
62051;BME280;48008;51.204;6.766;2022-07-25T10:17:03;100497.19;;;25.28;48.05
62051;BME280;48008;51.204;6.766;2022-07-25T10:19:47;100491.19;;;25.26;48.05
62051;BME280;48008;51.204;6.766;2022-07-25T10:22:16;100481.19;;;25.05;48.37
62051;BME280;48008;51.204;6.766;2022-07-25T10:24:48;100477.41;;;25.06;48.53
62051;BME280;48008;51.204;6.766;2022-07-25T10:27:23;100482.91;;;25.11;48.58
62051;BME280;48008;51.204;6.766;2022-07-25T10:29:52;100468.53;;;25.10;48.04
62051;BME280;48008;51.204;6.766;2022-07-25T10:32:24;100463.28;;;25.31;47.39
62051;BME280;48008;51.204;6.766;2022-07-25T10:34:53;100462.53;;;25.41;46.60
62051;BME280;48008;51.204;6.766;2022-07-25T10:37:26;100458.81;;;25.90;46.02
62051;BME280;48008;51.204;6.766;2022-07-25T10:39:54;100467.94;;;26.11;44.70
62051;BME280;48008;51.204;6.766;2022-07-25T10:42:22;100469.69;;;26.42;43.70
62051;BME280;48008;51.204;6.766;2022-07-25T10:44:53;100463.81;;;26.71;42.15
62051;BME280;48008;51.204;6.766;2022-07-25T10:47:25;100462.19;;;26.65;41.54
62051;BME280;48008;51.204;6.766;2022-07-25T10:49:57;100472.69;;;26.46;42.57
62051;BME280;48008;51.204;6.766;2022-07-25T10:52:44;100474.91;;;26.54;42.43
62051;BME280;48008;51.204;6.766;2022-07-25T10:55:21;100473.34;;;26.74;42.89
62051;BME280;48008;51.204;6.766;2022-07-25T10:58:04;100489.41;;;26.80;41.96
62051;BME280;48008;51.204;6.766;2022-07-25T11:00:47;100490.50;;;26.85;41.15
62051;BME280;48008;51.204;6.766;2022-07-25T11:03:16;100489.72;;;26.89;42.01
62051;BME280;48008;51.204;6.766;2022-07-25T11:05:45;100493.00;;;27.02;41.30
62051;BME280;48008;51.204;6.766;2022-07-25T11:08:12;100500.06;;;27.03;39.51
62051;BME280;48008;51.204;6.766;2022-07-25T11:10:50;100488.88;;;26.94;40.18
62051;BME280;48008;51.204;6.766;2022-07-25T11:13:17;100473.41;;;27.15;40.26
62051;BME280;48008;51.204;6.766;2022-07-25T11:15:44;100483.50;;;27.50;39.34
62051;BME280;48008;51.204;6.766;2022-07-25T11:18:12;100484.06;;;27.32;39.73
62051;BME280;48008;51.204;6.766;2022-07-25T11:20:38;100485.97;;;27.62;40.28
62051;BME280;48008;51.204;6.766;2022-07-25T11:23:05;100487.88;;;27.56;39.25
62051;BME280;48008;51.204;6.766;2022-07-25T11:25:32;100499.81;;;27.19;39.44
62051;BME280;48008;51.204;6.766;2022-07-25T11:28:00;100499.53;;;27.06;39.86
62051;BME280;48008;51.204;6.766;2022-07-25T11:30:28;100492.19;;;27.11;40.13
62051;BME280;48008;51.204;6.766;2022-07-25T11:32:56;100496.81;;;27.21;40.74
62051;BME280;48008;51.204;6.766;2022-07-25T11:35:28;100502.03;;;27.33;38.97
62051;BME280;48008;51.204;6.766;2022-07-25T11:37:58;100496.03;;;27.51;39.32
62051;BME280;48008;51.204;6.766;2022-07-25T11:40:26;100497.41;;;27.33;39.53
62051;BME280;48008;51.204;6.766;2022-07-25T11:42:55;100507.97;;;27.19;39.89
62051;BME280;48008;51.204;6.766;2022-07-25T11:45:25;100512.88;;;27.17;39.92
62051;BME280;48008;51.204;6.766;2022-07-25T11:48:10;100507.22;;;27.29;39.10
62051;BME280;48008;51.204;6.766;2022-07-25T11:50:40;100504.44;;;27.24;39.71
62051;BME280;48008;51.204;6.766;2022-07-25T11:53:10;100501.47;;;27.36;40.08
62051;BME280;48008;51.204;6.766;2022-07-25T11:55:38;100498.25;;;27.29;39.80
62051;BME280;48008;51.204;6.766;2022-07-25T11:58:06;100505.25;;;27.25;40.54
62051;BME280;48008;51.204;6.766;2022-07-25T12:00:38;100511.84;;;27.39;40.45
62051;BME280;48008;51.204;6.766;2022-07-25T12:03:07;100501.22;;;27.43;39.62
62051;BME280;48008;51.204;6.766;2022-07-25T12:05:34;100505.56;;;27.54;40.41
62051;BME280;48008;51.204;6.766;2022-07-25T12:08:13;100503.66;;;27.65;40.34
62051;BME280;48008;51.204;6.766;2022-07-25T12:10:41;100500.94;;;27.60;40.55
62051;BME280;48008;51.204;6.766;2022-07-25T12:13:19;100505.03;;;27.62;40.54
62051;BME280;48008;51.204;6.766;2022-07-25T12:15:47;100505.28;;;27.50;41.04
62051;BME280;48008;51.204;6.766;2022-07-25T12:18:14;100504.78;;;27.38;41.20
62051;BME280;48008;51.204;6.766;2022-07-25T12:20:42;100499.03;;;27.39;41.93
62051;BME280;48008;51.204;6.766;2022-07-25T12:23:11;100506.88;;;27.15;42.45
62051;BME280;48008;51.204;6.766;2022-07-25T12:25:40;100507.44;;;27.12;42.29
62051;BME280;48008;51.204;6.766;2022-07-25T12:28:08;100503.63;;;27.13;42.52
62051;BME280;48008;51.204;6.766;2022-07-25T12:30:38;100500.66;;;27.25;43.34
62051;BME280;48008;51.204;6.766;2022-07-25T12:33:05;100515.94;;;27.36;43.05
62051;BME280;48008;51.204;6.766;2022-07-25T12:35:33;100522.47;;;27.46;42.91
62051;BME280;48008;51.204;6.766;2022-07-25T12:38:00;100508.84;;;27.35;43.16
62051;BME280;48008;51.204;6.766;2022-07-25T12:40:26;100510.97;;;27.23;43.32
62051;BME280;48008;51.204;6.766;2022-07-25T12:42:53;100522.75;;;27.29;43.98
62051;BME280;48008;51.204;6.766;2022-07-25T12:45:20;100511.03;;;27.38;44.21
62051;BME280;48008;51.204;6.766;2022-07-25T12:47:49;100517.31;;;27.49;44.60
62051;BME280;48008;51.204;6.766;2022-07-25T12:50:16;100514.56;;;27.65;44.52
62051;BME280;48008;51.204;6.766;2022-07-25T12:52:44;100520.03;;;27.54;44.55
62051;BME280;48008;51.204;6.766;2022-07-25T12:55:14;100510.50;;;27.36;45.20
62051;BME280;48008;51.204;6.766;2022-07-25T12:57:41;100520.28;;;27.43;44.03